Time;durP1;ratioP1;P1;durP2;ratioP2;P2;SDS_P1;SDS_P2;PMS_P1;PMS_P2;Temp;Humidity;BMP_temperature;BMP_pressure;BME280_temperature;BME280_humidity;BME280_pressure;Samples;Min_cycle;Max_cycle;Signal;HPM_P1;HPM_P2
2022/01/31 00:02:15;;;;;;;17.33;3.10;;;4.00;94.10;;;;;;5060108;28;20488;-80
2022/01/31 00:04:42;;;;;;;13.87;3.87;;;4.00;94.20;;;;;;5059243;28;20171;-80
2022/01/31 00:07:10;;;;;;;20.50;3.50;;;4.00;94.20;;;;;;5059474;28;20262;-81
2022/01/31 00:09:35;;;;;;;14.30;3.30;;;4.00;94.40;;;;;;5059688;28;20440;-81
2022/01/31 00:12:07;;;;;;;22.67;3.00;;;4.00;94.30;;;;;;5058494;28;20976;-80
2022/01/31 00:14:38;;;;;;;16.20;3.03;;;4.00;94.30;;;;;;5059233;28;20537;-81
2022/01/31 00:17:04;;;;;;;14.27;3.50;;;4.00;94.40;;;;;;5059566;28;20443;-80
2022/01/31 00:19:30;;;;;;;15.10;2.90;;;3.90;94.70;;;;;;5077237;28;20827;-80
2022/01/31 00:21:56;;;;;;;23.40;4.30;;;3.90;94.80;;;;;;5058181;28;20473;-81
2022/01/31 00:24:21;;;;;;;10.23;3.00;;;3.90;95.00;;;;;;5058840;28;20210;-81
2022/01/31 00:26:47;;;;;;;14.80;3.00;;;3.80;94.90;;;;;;5059409;28;20424;-81
2022/01/31 00:29:12;;;;;;;22.93;3.60;;;3.80;95.00;;;;;;5058949;28;20175;-81
2022/01/31 00:31:38;;;;;;;13.70;3.50;;;3.80;95.30;;;;;;5076259;28;20191;-81
2022/01/31 00:34:04;;;;;;;12.97;3.50;;;3.80;95.00;;;;;;5076344;28;20189;-81
2022/01/31 00:36:29;;;;;;;19.97;4.30;;;3.80;95.20;;;;;;5058037;28;20199;-80
2022/01/31 00:38:55;;;;;;;14.80;3.30;;;3.70;94.90;;;;;;5058464;28;20191;-81
2022/01/31 00:41:20;;;;;;;10.23;3.07;;;3.70;94.50;;;;;;5058851;28;20305;-81
2022/01/31 00:43:56;;;;;;;27.17;4.57;;;3.70;94.70;;;;;;5059021;28;20183;-81
2022/01/31 00:46:27;;;;;;;61.70;3.97;;;3.70;94.80;;;;;;5059910;28;20171;-81
2022/01/31 00:48:53;;;;;;;18.53;5.10;;;3.70;94.90;;;;;;5059570;28;20424;-80
2022/01/31 00:51:19;;;;;;;17.60;3.30;;;3.70;94.80;;;;;;5059722;28;20429;-81
2022/01/31 00:53:44;;;;;;;11.60;2.73;;;3.70;95.00;;;;;;5059885;28;20183;-81
2022/01/31 00:56:10;;;;;;;18.87;3.63;;;3.70;95.10;;;;;;5078093;28;20653;-80
2022/01/31 00:58:35;;;;;;;11.20;3.20;;;3.70;95.00;;;;;;5077329;28;20266;-81
2022/01/31 01:01:02;;;;;;;17.13;3.73;;;3.70;95.10;;;;;;5058957;28;20234;-80
2022/01/31 01:03:27;;;;;;;13.00;3.40;;;3.70;95.20;;;;;;5077674;28;20171;-81
2022/01/31 01:05:53;;;;;;;25.60;3.50;;;3.70;95.40;;;;;;5059099;28;20413;-81
2022/01/31 01:08:19;;;;;;;14.40;2.90;;;3.70;95.40;;;;;;5058912;28;20167;-81
2022/01/31 01:10:45;;;;;;;27.13;3.33;;;3.70;95.70;;;;;;5077932;28;20199;-81
2022/01/31 01:13:11;;;;;;;14.43;3.07;;;3.70;95.70;;;;;;5076696;28;20425;-81
2022/01/31 01:15:37;;;;;;;11.33;3.07;;;3.70;95.80;;;;;;5076831;28;20189;-81
2022/01/31 01:18:02;;;;;;;12.80;3.20;;;3.70;95.90;;;;;;5059419;28;20447;-81
2022/01/31 01:20:28;;;;;;;24.53;3.73;;;3.70;96.10;;;;;;5058728;28;20336;-80
2022/01/31 01:22:53;;;;;;;15.77;3.40;;;3.70;96.10;;;;;;5058526;28;20175;-81
2022/01/31 01:25:19;;;;;;;14.00;3.43;;;3.70;96.10;;;;;;5058721;28;20182;-81
2022/01/31 01:27:47;;;;;;;17.83;4.77;;;3.70;96.20;;;;;;5059232;28;20190;-81
2022/01/31 01:30:14;;;;;;;17.53;3.60;;;3.70;96.30;;;;;;5058980;28;20174;-81
2022/01/31 01:32:59;;;;;;;22.53;3.17;;;3.70;96.20;;;;;;5058493;28;20487;-81
2022/01/31 01:35:29;;;;;;;17.60;3.30;;;3.70;96.30;;;;;;5069029;28;20472;-81
2022/01/31 01:37:55;;;;;;;18.70;3.47;;;3.70;96.30;;;;;;5075522;28;20413;-81
2022/01/31 01:40:20;;;;;;;14.63;3.27;;;3.60;96.40;;;;;;5075384;28;20470;-81
2022/01/31 01:42:46;;;;;;;15.33;3.10;;;3.60;96.40;;;;;;5075216;28;20210;-81
2022/01/31 01:45:11;;;;;;;23.97;3.90;;;3.60;96.50;;;;;;5076148;28;20184;-80
2022/01/31 01:47:37;;;;;;;22.30;4.07;;;3.60;96.60;;;;;;5077776;28;20182;-81
2022/01/31 01:50:03;;;;;;;13.03;3.03;;;3.60;96.70;;;;;;5076242;28;20179;-81
2022/01/31 01:52:29;;;;;;;21.00;3.50;;;3.60;96.50;;;;;;5075637;28;20195;-80
2022/01/31 01:54:54;;;;;;;12.20;3.33;;;3.60;96.60;;;;;;5077718;28;21072;-80
2022/01/31 01:57:23;;;;;;;18.77;3.43;;;3.60;96.80;;;;;;5076126;28;20693;-81
2022/01/31 01:59:54;;;;;;;16.50;3.60;;;3.60;96.70;;;;;;5077404;28;20164;-80
2022/01/31 02:02:20;;;;;;;22.40;4.00;;;3.60;96.80;;;;;;5075836;28;20466;-81
2022/01/31 02:04:45;;;;;;;10.73;3.10;;;3.60;96.90;;;;;;5075785;28;20421;-81
2022/01/31 02:07:12;;;;;;;14.50;3.57;;;3.50;97.20;;;;;;5076477;28;20183;-81
2022/01/31 02:09:44;;;;;;;18.40;3.40;;;3.50;97.20;;;;;;5079705;28;20200;-80
2022/01/31 02:12:10;;;;;;;29.87;4.13;;;3.50;97.20;;;;;;5079575;28;20452;-80
2022/01/31 02:14:36;;;;;;;17.63;3.97;;;3.50;97.30;;;;;;5079457;28;20422;-81
2022/01/31 02:17:01;;;;;;;16.57;3.77;;;3.50;97.30;;;;;;5081663;28;20469;-81
2022/01/31 02:19:27;;;;;;;21.90;4.43;;;3.40;97.30;;;;;;5079265;28;20325;-81
2022/01/31 02:21:53;;;;;;;23.13;4.20;;;3.40;97.30;;;;;;5079558;28;20214;-82
2022/01/31 02:24:20;;;;;;;22.03;3.70;;;3.40;97.30;;;;;;5078834;28;20182;-81
2022/01/31 02:26:46;;;;;;;18.40;3.70;;;3.40;97.30;;;;;;5078849;28;20470;-81
2022/01/31 02:29:11;;;;;;;22.30;3.70;;;3.40;97.30;;;;;;5079362;28;20401;-81
2022/01/31 02:31:43;;;;;;;27.77;4.30;;;3.30;97.30;;;;;;5078245;28;20199;-81
2022/01/31 02:34:08;;;;;;;20.67;4.03;;;3.30;97.30;;;;;;5059611;28;20168;-81
2022/01/31 02:36:34;;;;;;;14.67;4.47;;;3.40;97.30;;;;;;5063174;28;20969;-81
2022/01/31 02:38:59;;;;;;;13.70;4.23;;;3.40;97.30;;;;;;5062288;28;20179;-81
2022/01/31 02:41:27;;;;;;;20.97;3.67;;;3.40;97.30;;;;;;5062327;28;20219;-80
2022/01/31 02:43:54;;;;;;;18.63;4.10;;;3.30;97.30;;;;;;5061652;28;20195;-81
2022/01/31 02:46:23;;;;;;;22.30;3.90;;;3.30;97.30;;;;;;5062010;28;20413;-81
2022/01/31 02:48:51;;;;;;;36.07;4.40;;;3.30;97.30;;;;;;5061782;28;20443;-81
2022/01/31 02:51:21;;;;;;;16.63;3.70;;;3.30;97.30;;;;;;5061711;28;20994;-80
2022/01/31 02:53:47;;;;;;;22.37;2.93;;;3.30;97.30;;;;;;5079251;28;20413;-81
2022/01/31 02:56:12;;;;;;;19.17;4.07;;;3.30;97.30;;;;;;5061782;28;20431;-80
2022/01/31 02:58:38;;;;;;;12.73;3.63;;;3.30;97.30;;;;;;5061498;28;20186;-81
2022/01/31 03:01:04;;;;;;;13.17;3.70;;;3.30;97.30;;;;;;5060749;28;20231;-81
2022/01/31 03:03:30;;;;;;;19.43;3.90;;;3.30;97.30;;;;;;5061621;28;20175;-81
2022/01/31 03:05:55;;;;;;;16.13;3.90;;;3.30;97.30;;;;;;5061275;28;20175;-81
2022/01/31 03:08:22;;;;;;;23.27;3.00;;;3.30;97.30;;;;;;5060339;28;20790;-81
2022/01/31 03:10:48;;;;;;;18.40;2.93;;;3.30;97.30;;;;;;5060624;28;20195;-81
2022/01/31 03:13:13;;;;;;;15.43;3.27;;;3.30;97.30;;;;;;5060603;28;20429;-80
2022/01/31 03:15:39;;;;;;;26.20;3.37;;;3.30;97.30;;;;;;5078757;28;20187;-81
2022/01/31 03:18:05;;;;;;;23.10;3.63;;;3.30;97.30;;;;;;5061619;28;20175;-80
2022/01/31 03:20:31;;;;;;;26.77;4.00;;;3.30;97.30;;;;;;5059700;28;20218;-81
2022/01/31 03:22:57;;;;;;;22.67;3.87;;;3.30;97.30;;;;;;5061174;28;20413;-83
2022/01/31 03:25:23;;;;;;;20.73;4.23;;;3.30;97.30;;;;;;5060838;28;20172;-80
2022/01/31 03:27:50;;;;;;;17.10;4.23;;;3.30;97.30;;;;;;5060636;28;20432;-81
2022/01/31 03:30:21;;;;;;;27.40;4.40;;;3.30;97.30;;;;;;5078773;28;20172;-80
2022/01/31 03:32:47;;;;;;;23.83;3.40;;;3.30;97.30;;;;;;5061022;28;20398;-81
2022/01/31 03:35:13;;;;;;;18.73;4.03;;;3.30;97.30;;;;;;5077802;28;20460;-81
2022/01/31 03:37:39;;;;;;;14.90;3.50;;;3.20;97.30;;;;;;5060399;28;20641;-81
2022/01/31 03:40:07;;;;;;;20.40;3.27;;;3.20;97.30;;;;;;5060437;28;20493;-81
2022/01/31 03:42:33;;;;;;;23.50;4.30;;;3.20;97.30;;;;;;5059877;28;20219;-81
2022/01/31 03:44:59;;;;;;;12.77;3.37;;;3.20;97.30;;;;;;5060686;28;20793;-81
2022/01/31 03:47:24;;;;;;;30.33;4.40;;;3.10;97.30;;;;;;5060944;28;20410;-80
2022/01/31 03:49:50;;;;;;;21.13;3.90;;;3.10;97.30;;;;;;5078503;28;20186;-81
2022/01/31 03:52:16;;;;;;;17.87;4.03;;;3.10;97.30;;;;;;5060483;28;20701;-81
2022/01/31 03:54:43;;;;;;;20.73;4.07;;;3.10;97.30;;;;;;5060531;28;20426;-81
2022/01/31 03:57:11;;;;;;;22.13;4.10;;;3.00;97.30;;;;;;5070924;22;20982;-90
2022/01/31 03:59:37;;;;;;;29.33;4.60;;;3.00;97.30;;;;;;5053586;28;20464;-89
2022/01/31 04:02:06;;;;;;;24.03;3.27;;;3.00;97.30;;;;;;5052605;28;20462;-88
2022/01/31 04:04:35;;;;;;;33.53;3.70;;;3.00;97.30;;;;;;5052416;28;20246;-89
2022/01/31 04:07:03;;;;;;;16.30;3.57;;;2.90;97.30;;;;;;5053188;28;20438;-89
2022/01/31 04:09:36;;;;;;;23.83;4.63;;;2.90;97.30;;;;;;5053947;28;20415;-88
2022/01/31 04:12:04;;;;;;;22.80;4.13;;;2.90;97.30;;;;;;5053083;28;20490;-89
2022/01/31 04:14:34;;;;;;;18.03;3.40;;;2.90;97.30;;;;;;5053998;28;20501;-91
2022/01/31 04:17:05;;;;;;;20.80;4.07;;;2.90;97.30;;;;;;5052973;28;20438;-90
2022/01/31 04:19:38;;;;;;;19.00;3.93;;;2.90;97.30;;;;;;5055440;28;20429;-90
2022/01/31 04:22:10;;;;;;;15.70;3.90;;;2.90;97.30;;;;;;5073954;28;20498;-87
2022/01/31 04:24:36;;;;;;;15.53;5.03;;;2.80;97.30;;;;;;5055978;28;20422;-89
2022/01/31 04:27:06;;;;;;;26.70;4.80;;;2.90;97.30;;;;;;5056112;28;20521;-90
2022/01/31 04:29:35;;;;;;;46.50;4.50;;;2.90;97.30;;;;;;5043065;28;20914;-89
2022/01/31 04:32:05;;;;;;;20.97;4.10;;;2.80;97.30;;;;;;5035357;28;20461;-89
2022/01/31 04:34:35;;;;;;;25.50;4.87;;;2.80;97.30;;;;;;5035994;28;20407;-89
2022/01/31 04:37:06;;;;;;;19.07;3.40;;;2.80;97.30;;;;;;5053699;28;20431;-89
2022/01/31 04:39:34;;;;;;;19.93;4.00;;;2.80;97.30;;;;;;5083095;23;20957;-81
2022/01/31 04:42:00;;;;;;;20.57;3.57;;;2.80;97.30;;;;;;5057206;28;20534;-83
2022/01/31 04:44:26;;;;;;;15.30;4.73;;;2.80;97.30;;;;;;5057578;28;20444;-82
2022/01/31 04:46:51;;;;;;;17.03;3.50;;;2.80;97.30;;;;;;5059043;28;20402;-82
2022/01/31 04:49:19;;;;;;;14.10;3.90;;;2.80;97.30;;;;;;5057434;28;20203;-82
2022/01/31 04:51:44;;;;;;;21.90;5.37;;;2.80;97.30;;;;;;5057142;28;20202;-82
2022/01/31 04:54:10;;;;;;;14.83;3.30;;;2.80;97.30;;;;;;5057020;28;20422;-82
2022/01/31 04:56:38;;;;;;;13.87;3.87;;;2.90;97.30;;;;;;5057372;28;20550;-82
2022/01/31 04:59:03;;;;;;;23.23;4.37;;;2.90;97.30;;;;;;5056543;28;20593;-82
2022/01/31 05:01:29;;;;;;;26.17;4.93;;;2.90;97.30;;;;;;5058435;28;20462;-82
2022/01/31 05:03:55;;;;;;;16.50;3.57;;;2.90;97.30;;;;;;5056617;28;20171;-82
2022/01/31 05:06:27;;;;;;;12.03;4.10;;;3.00;97.30;;;;;;5057183;28;20468;-82
2022/01/31 05:08:53;;;;;;;15.53;3.63;;;3.00;97.30;;;;;;5056740;28;20279;-82
2022/01/31 05:11:18;;;;;;;18.53;4.13;;;3.00;97.30;;;;;;5056881;28;20866;-82
2022/01/31 05:13:46;;;;;;;14.07;3.97;;;3.00;97.30;;;;;;5056851;28;20188;-82
2022/01/31 05:16:12;;;;;;;14.60;3.47;;;3.00;97.30;;;;;;5059118;28;20176;-82
2022/01/31 05:18:38;;;;;;;15.57;4.77;;;3.00;97.30;;;;;;5058045;28;20449;-83
2022/01/31 05:21:05;;;;;;;24.47;4.23;;;3.00;97.30;;;;;;5073211;28;20485;-82
2022/01/31 05:23:31;;;;;;;15.00;4.03;;;3.00;97.30;;;;;;5058995;28;20418;-82
2022/01/31 05:25:57;;;;;;;18.27;4.00;;;3.00;97.30;;;;;;5057181;28;20418;-82
2022/01/31 05:28:23;;;;;;;14.97;4.47;;;3.00;97.30;;;;;;5058811;28;20433;-82
2022/01/31 05:30:48;;;;;;;23.20;3.77;;;3.00;97.30;;;;;;5056023;28;20188;-82
2022/01/31 05:33:14;;;;;;;13.97;4.20;;;3.00;97.30;;;;;;5057467;28;20179;-82
2022/01/31 05:35:39;;;;;;;27.60;5.43;;;3.00;97.30;;;;;;5056478;28;20658;-82
2022/01/31 05:38:05;;;;;;;24.17;3.90;;;3.00;97.30;;;;;;5057204;28;20195;-82
2022/01/31 05:40:31;;;;;;;18.93;4.00;;;3.00;97.30;;;;;;5056938;28;20213;-81
2022/01/31 05:42:56;;;;;;;18.70;4.57;;;3.00;97.30;;;;;;5058255;28;20709;-82
2022/01/31 05:45:22;;;;;;;20.57;5.90;;;3.10;97.30;;;;;;5060360;28;21059;-82
2022/01/31 05:47:47;;;;;;;17.30;3.60;;;3.10;97.30;;;;;;5060279;28;20211;-81
2022/01/31 05:50:13;;;;;;;11.60;3.50;;;3.10;97.30;;;;;;5062472;28;20171;-82
2022/01/31 05:52:39;;;;;;;15.70;4.57;;;3.10;97.30;;;;;;5062796;28;20186;-82
2022/01/31 05:55:05;;;;;;;18.30;5.40;;;3.10;97.30;;;;;;5061257;28;20176;-81
2022/01/31 05:57:33;;;;;;;17.40;4.60;;;3.10;97.30;;;;;;5061020;28;20793;-81
2022/01/31 05:59:58;;;;;;;13.27;4.40;;;3.10;97.30;;;;;;5062322;28;20838;-82
2022/01/31 06:02:29;;;;;;;22.70;4.47;;;3.10;97.30;;;;;;5060803;28;20465;-82
2022/01/31 06:04:55;;;;;;;10.73;3.97;;;3.10;97.30;;;;;;5061350;28;20403;-81
2022/01/31 06:07:20;;;;;;;20.97;5.30;;;3.10;97.30;;;;;;5062590;28;21049;-82
2022/01/31 06:09:46;;;;;;;13.07;3.40;;;3.10;97.30;;;;;;5061079;28;20191;-81
2022/01/31 06:12:12;;;;;;;22.97;3.27;;;3.00;97.30;;;;;;5060402;28;20183;-81
2022/01/31 06:14:39;;;;;;;11.43;3.70;;;3.00;97.30;;;;;;5061308;28;20182;-82
2022/01/31 06:17:04;;;;;;;7.57;2.97;;;3.00;97.30;;;;;;5060890;28;20429;-82
2022/01/31 06:19:30;;;;;;;20.07;4.53;;;3.00;97.30;;;;;;5061108;28;20430;-81
2022/01/31 06:21:56;;;;;;;15.13;3.90;;;3.00;97.30;;;;;;5060908;28;20208;-82
2022/01/31 06:24:21;;;;;;;23.47;4.40;;;3.00;97.30;;;;;;5062248;28;20198;-82
2022/01/31 06:26:47;;;;;;;18.40;4.20;;;3.00;97.30;;;;;;5063472;28;20525;-81
2022/01/31 06:29:13;;;;;;;18.10;4.57;;;2.90;97.30;;;;;;5062661;28;20180;-81
2022/01/31 06:31:38;;;;;;;21.80;4.90;;;2.90;97.30;;;;;;5060111;28;20422;-81
2022/01/31 06:34:04;;;;;;;24.73;4.30;;;2.90;97.30;;;;;;5061103;28;20206;-81
2022/01/31 06:36:29;;;;;;;19.70;4.30;;;2.90;97.30;;;;;;5059045;28;20179;-81
2022/01/31 06:38:55;;;;;;;16.30;4.30;;;2.90;97.30;;;;;;5059616;28;20232;-81
2022/01/31 06:41:22;;;;;;;21.60;4.03;;;2.90;97.30;;;;;;5059460;28;20204;-81
2022/01/31 06:43:48;;;;;;;18.13;4.03;;;2.80;97.30;;;;;;5058197;28;20233;-81
2022/01/31 06:46:14;;;;;;;14.40;3.27;;;2.80;97.30;;;;;;5062690;28;20422;-81
2022/01/31 06:48:40;;;;;;;12.33;3.90;;;2.80;97.30;;;;;;5062931;28;20192;-81
2022/01/31 06:51:06;;;;;;;27.23;4.17;;;2.80;97.30;;;;;;5054370;28;20422;-82
2022/01/31 06:53:33;;;;;;;14.57;3.97;;;2.80;97.30;;;;;;5058756;28;20180;-81
2022/01/31 06:55:59;;;;;;;11.03;3.90;;;2.80;97.30;;;;;;5059181;28;20790;-81
2022/01/31 06:58:25;;;;;;;12.63;3.80;;;2.80;97.30;;;;;;5060923;28;20437;-82
2022/01/31 07:00:51;;;;;;;21.63;4.10;;;2.80;97.30;;;;;;5059288;28;20188;-81
2022/01/31 07:03:17;;;;;;;18.27;4.53;;;2.80;97.30;;;;;;5059982;28;20210;-81
2022/01/31 07:05:44;;;;;;;14.80;3.50;;;2.80;97.30;;;;;;5059323;28;20952;-80
2022/01/31 07:08:11;;;;;;;22.33;4.23;;;2.80;97.30;;;;;;5060210;28;20199;-82
2022/01/31 07:10:38;;;;;;;12.30;3.53;;;2.80;97.30;;;;;;5060398;28;20489;-81
2022/01/31 07:13:12;;;;;;;11.10;3.93;;;2.90;97.30;;;;;;5058555;28;20518;-81
2022/01/31 07:15:38;;;;;;;14.93;4.70;;;2.90;97.30;;;;;;5056791;28;20390;-81
2022/01/31 07:18:04;;;;;;;17.57;3.83;;;2.90;97.30;;;;;;5059519;28;20438;-81
2022/01/31 07:20:39;;;;;;;13.57;3.80;;;2.90;97.30;;;;;;5058477;28;20823;-81
2022/01/31 07:23:13;;;;;;;20.57;3.50;;;2.90;97.30;;;;;;5058759;28;20187;-80
2022/01/31 07:25:38;;;;;;;17.83;3.43;;;3.00;97.30;;;;;;5058255;28;20585;-81
2022/01/31 07:28:08;;;;;;;8.73;3.20;;;3.00;97.30;;;;;;5058714;28;20505;-81
2022/01/31 07:30:35;;;;;;;11.97;3.40;;;3.00;97.30;;;;;;5059114;28;20603;-81
2022/01/31 07:33:01;;;;;;;19.13;4.23;;;3.00;97.30;;;;;;5058183;28;20410;-81
2022/01/31 07:35:26;;;;;;;13.70;4.03;;;3.00;97.30;;;;;;5059338;28;20951;-81
2022/01/31 07:37:52;;;;;;;13.93;3.47;;;2.90;97.30;;;;;;5058653;28;20406;-81
2022/01/31 07:40:17;;;;;;;12.97;3.83;;;2.70;97.30;;;;;;5058408;28;20332;-81
2022/01/31 07:42:43;;;;;;;20.07;3.00;;;2.50;97.30;;;;;;5058980;28;20198;-81
2022/01/31 07:45:09;;;;;;;16.53;3.70;;;2.30;97.30;;;;;;5058144;28;20202;-82
2022/01/31 07:47:35;;;;;;;15.07;3.63;;;2.20;97.30;;;;;;5057125;28;20175;-81
2022/01/31 07:50:01;;;;;;;21.07;4.10;;;2.10;97.30;;;;;;5057209;28;20195;-81
2022/01/31 07:52:27;;;;;;;13.33;3.20;;;1.90;97.30;;;;;;5057397;28;21197;-81
2022/01/31 07:54:53;;;;;;;17.43;4.33;;;1.80;97.30;;;;;;5056937;28;20426;-81
2022/01/31 07:57:20;;;;;;;10.13;3.57;;;1.70;97.30;;;;;;5058098;28;20239;-81
2022/01/31 07:59:45;;;;;;;19.73;3.50;;;1.70;97.30;;;;;;5056919;28;20481;-80
2022/01/31 08:02:11;;;;;;;12.20;3.40;;;1.60;97.30;;;;;;5056574;28;20473;-81
2022/01/31 08:04:36;;;;;;;11.27;3.80;;;1.60;97.30;;;;;;5056197;28;20171;-81
2022/01/31 08:07:02;;;;;;;18.07;4.30;;;1.50;97.30;;;;;;5056904;28;20199;-81
2022/01/31 08:09:28;;;;;;;13.50;3.73;;;1.50;97.30;;;;;;5057227;28;20192;-80
2022/01/31 08:11:53;;;;;;;11.53;4.23;;;1.50;97.30;;;;;;5056841;28;20176;-81
2022/01/31 08:14:19;;;;;;;20.10;4.00;;;1.50;97.30;;;;;;5056570;28;20589;-81
2022/01/31 08:16:45;;;;;;;12.60;4.20;;;1.50;97.30;;;;;;5056635;28;20610;-81
2022/01/31 08:19:11;;;;;;;10.50;3.73;;;1.50;97.30;;;;;;5056529;28;20442;-79
2022/01/31 08:21:37;;;;;;;21.70;5.07;;;1.50;97.30;;;;;;5056121;28;20206;-81
2022/01/31 08:24:03;;;;;;;10.57;3.70;;;1.40;97.30;;;;;;5056140;28;20175;-81
2022/01/31 08:26:29;;;;;;;25.40;4.63;;;1.40;97.30;;;;;;5055855;28;20423;-81
2022/01/31 08:29:02;;;;;;;21.87;5.80;;;1.40;97.30;;;;;;5056016;28;20441;-81
2022/01/31 08:31:35;;;;;;;10.00;4.10;;;1.40;97.30;;;;;;5056458;28;20488;-80
2022/01/31 08:34:07;;;;;;;17.93;4.93;;;1.40;97.30;;;;;;5055609;28;20482;-80
2022/01/31 08:36:36;;;;;;;17.57;4.83;;;1.40;97.30;;;;;;5057330;28;20446;-80
2022/01/31 08:39:13;;;;;;;17.17;3.97;;;1.40;97.30;;;;;;5055670;28;20500;-80
2022/01/31 08:41:43;;;;;;;20.57;4.93;;;1.40;97.30;;;;;;5056341;28;20450;-80
2022/01/31 08:44:11;;;;;;;15.83;4.53;;;1.40;97.30;;;;;;5056149;28;20414;-80
2022/01/31 08:46:40;;;;;;;18.93;4.07;;;1.40;97.30;;;;;;5056146;28;20422;-80
2022/01/31 08:49:12;;;;;;;13.90;4.37;;;1.40;97.30;;;;;;5055636;28;20957;-80
2022/01/31 08:51:38;;;;;;;18.43;3.63;;;1.40;97.30;;;;;;5054998;28;20414;-79
2022/01/31 08:54:07;;;;;;;26.47;4.90;;;1.40;97.30;;;;;;5054872;28;20802;-80
2022/01/31 08:56:40;;;;;;;12.90;3.97;;;1.40;97.30;;;;;;5056493;28;20239;-79
2022/01/31 08:59:07;;;;;;;12.80;4.57;;;1.50;97.30;;;;;;5057473;28;20436;-80
2022/01/31 09:01:33;;;;;;;15.20;6.40;;;1.50;97.30;;;;;;5056678;28;20460;-80
2022/01/31 09:04:03;;;;;;;12.20;4.53;;;1.50;97.30;;;;;;5055202;28;20414;-79
2022/01/31 09:06:31;;;;;;;27.83;5.57;;;1.50;97.30;;;;;;5055707;28;20643;-80
2022/01/31 09:08:58;;;;;;;18.40;5.23;;;1.50;97.30;;;;;;5055375;28;20431;-80
2022/01/31 09:11:25;;;;;;;15.47;4.77;;;1.50;97.30;;;;;;5046863;28;20468;-80
2022/01/31 09:13:51;;;;;;;7.67;3.97;;;1.50;97.30;;;;;;5055052;28;20416;-80
2022/01/31 09:16:17;;;;;;;14.37;4.83;;;1.50;97.30;;;;;;5055275;28;20414;-80
2022/01/31 09:18:43;;;;;;;18.97;4.30;;;1.50;97.30;;;;;;5057972;28;20468;-80
2022/01/31 09:21:08;;;;;;;35.47;7.63;;;1.60;97.30;;;;;;5059868;28;20458;-80
2022/01/31 09:23:34;;;;;;;12.33;4.97;;;1.60;97.30;;;;;;5059646;28;20175;-79
2022/01/31 09:26:00;;;;;;;21.93;5.27;;;1.60;97.30;;;;;;5060628;28;20175;-79
2022/01/31 09:28:26;;;;;;;11.70;5.03;;;1.60;97.30;;;;;;5059684;28;20225;-80
2022/01/31 09:30:53;;;;;;;16.83;5.33;;;1.60;97.30;;;;;;5058854;28;20984;-80
2022/01/31 09:33:19;;;;;;;18.40;5.60;;;1.60;97.30;;;;;;5059013;28;20176;-80
2022/01/31 09:35:44;;;;;;;12.53;6.00;;;1.60;97.30;;;;;;5059895;28;20505;-79
2022/01/31 09:38:13;;;;;;;15.50;5.50;;;1.60;97.30;;;;;;5059741;28;20484;-80
2022/01/31 09:40:39;;;;;;;12.90;4.90;;;1.60;97.30;;;;;;5059913;28;20187;-80
2022/01/31 09:51:05;;;;;;;10.60;5.00;;;1.70;97.30;;;;;;5059379;28;20412;-80
2022/01/31 09:53:33;;;;;;;19.77;4.93;;;1.70;97.30;;;;;;5058496;28;21110;-80
2022/01/31 09:55:59;;;;;;;9.10;5.17;;;1.70;97.30;;;;;;5060511;28;20425;-80
2022/01/31 09:58:29;;;;;;;9.07;4.10;;;1.80;97.30;;;;;;5059368;28;20491;-79
2022/01/31 10:01:13;;;;;;;22.77;5.10;;;1.80;97.30;;;;;;5059282;28;20458;-80
2022/01/31 10:04:10;;;;;;;16.60;4.60;;;1.90;97.30;;;;;;5059603;28;20394;-80
2022/01/31 10:06:38;;;;;;;15.63;4.30;;;1.90;97.30;;;;;;5058080;28;20779;-79
2022/01/31 10:09:13;;;;;;;14.23;4.60;;;2.00;97.30;;;;;;5059794;28;20434;-80
2022/01/31 10:11:48;;;;;;;14.50;4.90;;;2.00;97.30;;;;;;5060103;28;20398;-80
2022/01/31 10:17:09;;;;;;;11.23;4.50;;;2.10;97.30;;;;;;5059648;28;20879;-80
2022/01/31 10:19:39;;;;;;;14.90;4.40;;;2.10;97.30;;;;;;5058185;28;20438;-80
2022/01/31 10:22:08;;;;;;;7.80;3.87;;;2.10;97.30;;;;;;5058438;28;20504;-79
2022/01/31 10:24:35;;;;;;;9.90;4.50;;;2.20;97.30;;;;;;5059893;28;20413;-80
2022/01/31 10:27:09;;;;;;;10.70;4.33;;;2.20;97.30;;;;;;5058731;28;20555;-80
2022/01/31 10:29:35;;;;;;;16.97;4.57;;;2.20;97.30;;;;;;5058461;28;20462;-80
2022/01/31 10:32:05;;;;;;;7.40;4.60;;;2.30;97.30;;;;;;5058814;28;20945;-80
2022/01/31 10:34:34;;;;;;;5.07;3.33;;;2.30;97.30;;;;;;5057901;28;20267;-80
2022/01/31 10:37:12;;;;;;;8.93;3.90;;;2.20;97.30;;;;;;5058102;28;20912;-80
2022/01/31 10:51:05;;;;;;;10.27;3.60;;;2.20;97.30;;;;;;5059301;28;20444;-80
2022/01/31 10:54:13;;;;;;;4.17;2.73;;;2.10;97.30;;;;;;5059142;28;20411;-80
2022/01/31 10:56:48;;;;;;;4.83;2.90;;;2.10;97.30;;;;;;5049742;28;20426;-80
2022/01/31 10:59:19;;;;;;;3.43;2.70;;;2.00;97.30;;;;;;5057847;28;20445;-80
2022/01/31 11:01:48;;;;;;;5.43;3.00;;;2.00;97.30;;;;;;5057493;28;20454;-80
2022/01/31 11:04:15;;;;;;;6.13;4.23;;;2.00;97.30;;;;;;5057145;28;20422;-80
2022/01/31 11:06:50;;;;;;;4.93;3.40;;;2.10;97.30;;;;;;5058503;28;20414;-80
2022/01/31 11:09:17;;;;;;;9.10;3.37;;;2.00;97.30;;;;;;5057008;28;20438;-80
2022/01/31 11:11:45;;;;;;;6.80;2.90;;;2.10;97.30;;;;;;5058668;28;20795;-79
2022/01/31 11:14:12;;;;;;;4.03;3.17;;;2.00;97.30;;;;;;5056492;28;20488;-80
2022/01/31 11:16:40;;;;;;;5.73;3.33;;;2.00;97.30;;;;;;5057199;28;20433;-80
2022/01/31 11:19:09;;;;;;;7.97;3.50;;;2.00;97.30;;;;;;5058271;28;20441;-80
2022/01/31 11:21:43;;;;;;;6.10;3.93;;;2.00;97.30;;;;;;5057225;28;20453;-80
2022/01/31 11:24:19;;;;;;;6.43;3.43;;;2.00;97.30;;;;;;5056398;28;20463;-81
2022/01/31 11:26:51;;;;;;;7.20;3.90;;;2.00;97.30;;;;;;5056382;28;20410;-80
2022/01/31 11:29:17;;;;;;;5.43;3.50;;;2.00;97.30;;;;;;5056736;28;20426;-80
2022/01/31 11:31:44;;;;;;;6.70;3.73;;;2.00;97.30;;;;;;5056004;28;20913;-80
2022/01/31 11:34:09;;;;;;;5.67;4.00;;;2.00;97.30;;;;;;5056730;28;20433;-80
2022/01/31 11:36:37;;;;;;;9.53;3.90;;;2.10;97.30;;;;;;5058607;28;20418;-80
2022/01/31 11:39:10;;;;;;;7.17;4.20;;;2.10;97.30;;;;;;5056722;28;20288;-80
2022/01/31 11:41:41;;;;;;;6.00;3.73;;;2.00;97.30;;;;;;5056073;28;20596;-80
2022/01/31 11:44:22;;;;;;;7.70;4.80;;;2.00;97.30;;;;;;5058508;28;20414;-80
2022/01/31 11:46:49;;;;;;;7.00;3.97;;;2.10;97.30;;;;;;5057200;28;20831;-80
2022/01/31 11:49:15;;;;;;;8.70;4.60;;;2.10;97.30;;;;;;5056723;28;20465;-80
2022/01/31 11:51:59;;;;;;;10.97;4.70;;;2.10;97.30;;;;;;5058045;28;20440;-80
2022/01/31 11:54:25;;;;;;;5.70;3.60;;;2.10;97.30;;;;;;5056375;28;20172;-81
2022/01/31 11:56:53;;;;;;;10.00;4.73;;;2.10;97.30;;;;;;5056081;28;20413;-81
2022/01/31 11:59:24;;;;;;;8.83;4.50;;;2.10;97.30;;;;;;5058050;28;20238;-80
2022/01/31 12:01:57;;;;;;;8.00;3.97;;;2.10;97.30;;;;;;5055968;28;20470;-80
2022/01/31 12:04:23;;;;;;;13.90;5.20;;;2.10;97.30;;;;;;5056666;28;20417;-80
2022/01/31 12:06:49;;;;;;;8.60;4.70;;;2.10;97.30;;;;;;5056744;28;20430;-80
2022/01/31 12:09:18;;;;;;;9.27;5.03;;;2.20;97.30;;;;;;5056139;28;20436;-81
2022/01/31 12:12:11;;;;;;;10.03;4.83;;;2.20;97.30;;;;;;5056155;28;20418;-80
2022/01/31 12:14:51;;;;;;;8.20;3.80;;;2.30;97.30;;;;;;5056647;28;20421;-80
2022/01/31 12:18:18;;;;;;;10.13;3.63;;;2.30;97.30;;;;;;5055876;28;20419;-81
2022/01/31 12:23:39;;;;;;;9.67;4.40;;;2.30;97.30;;;;;;5022675;28;20912;-81
2022/01/31 12:26:26;;;;;;;11.20;4.67;;;2.40;97.30;;;;;;5052486;28;20421;-81
2022/01/31 12:29:02;;;;;;;12.53;4.60;;;2.40;97.30;;;;;;5052316;28;21093;-81
2022/01/31 12:31:30;;;;;;;11.60;4.67;;;2.50;97.30;;;;;;5052629;28;20501;-81
2022/01/31 12:33:57;;;;;;;8.70;4.17;;;2.50;97.30;;;;;;5052462;28;20410;-81
2022/01/31 12:36:35;;;;;;;5.93;3.90;;;2.60;97.30;;;;;;5052181;28;20428;-81
2022/01/31 12:39:25;;;;;;;7.13;4.50;;;2.70;97.30;;;;;;5051810;28;20987;-81
2022/01/31 12:41:59;;;;;;;7.13;3.87;;;2.70;97.30;;;;;;5051054;28;20466;-81
2022/01/31 12:44:38;;;;;;;6.33;3.20;;;2.80;97.30;;;;;;5052093;28;20488;-81
2022/01/31 12:47:20;;;;;;;7.63;4.00;;;2.90;97.30;;;;;;5052049;28;20773;-81
2022/01/31 12:50:21;;;;;;;9.60;3.40;;;3.00;97.30;;;;;;5052365;28;20438;-81
2022/01/31 12:52:47;;;;;;;16.33;3.33;;;3.10;97.30;;;;;;5053123;28;20390;-81
2022/01/31 12:55:13;;;;;;;9.10;3.50;;;3.20;97.30;;;;;;5052935;28;20841;-81
2022/01/31 12:57:52;;;;;;;3.80;3.10;;;3.30;97.30;;;;;;5052976;28;20164;-80
2022/01/31 13:00:39;;;;;;;6.30;3.20;;;3.40;97.30;;;;;;5051411;28;20401;-81
2022/01/31 13:03:05;;;;;;;4.43;2.83;;;3.40;97.30;;;;;;5051210;28;20909;-80
2022/01/31 13:05:36;;;;;;;7.77;2.87;;;3.50;97.30;;;;;;5051828;28;20414;-80
2022/01/31 13:08:26;;;;;;;6.13;2.83;;;3.50;97.30;;;;;;5051319;28;20500;-81
2022/01/31 13:10:53;;;;;;;6.63;2.73;;;3.60;97.30;;;;;;5051606;28;20919;-81
2022/01/31 13:13:37;;;;;;;11.93;3.30;;;3.60;97.30;;;;;;5051423;28;20414;-80
2022/01/31 13:16:08;;;;;;;7.20;2.87;;;3.70;97.30;;;;;;5051324;28;20418;-81
2022/01/31 13:18:34;;;;;;;7.03;3.27;;;3.70;97.30;;;;;;5052358;28;20984;-80
2022/01/31 13:21:04;;;;;;;6.00;2.80;;;3.80;97.30;;;;;;5053419;28;20461;-80